createdAt,value
2022-11-02T00:00:14.902Z,101490.38
2022-11-02T00:01:25.847Z,103173.19
2022-11-02T00:02:28.017Z,105485.13
2022-11-02T00:03:30.140Z,103479.81
2022-11-02T00:04:32.322Z,104156.53
2022-11-02T00:05:34.411Z,103143.16
2022-11-02T00:06:36.966Z,100484.53
2022-11-02T00:07:39.888Z,102492.44
2022-11-02T00:08:42.065Z,102489.97
2022-11-02T00:09:44.154Z,102491.63
2022-11-02T00:10:46.239Z,104162.41
2022-11-02T00:11:54.983Z,105507.31
2022-11-02T00:12:57.717Z,105170.38
2022-11-02T00:13:59.824Z,106501.16
2022-11-02T00:15:02.039Z,107163.22
2022-11-02T00:16:07.555Z,105510.72
2022-11-02T00:17:09.659Z,105843.44
2022-11-02T00:18:13.992Z,107510.78
2022-11-02T00:19:16.142Z,107173.63
2022-11-02T00:20:19.867Z,110858.25
2022-11-02T00:21:24.564Z,110180.47
2022-11-02T00:22:26.991Z,111861.31
2022-11-02T00:23:30.237Z,110870.81
2022-11-02T00:24:33.188Z,109192.03
2022-11-02T00:25:40.038Z,108878.44
2022-11-02T00:26:42.171Z,111204.88
2022-11-02T00:27:44.429Z,114537.75
2022-11-02T00:28:46.898Z,113217.19
2022-11-02T00:29:49.792Z,114210.88
2022-11-02T00:30:51.921Z,112891.16
2022-11-02T00:31:54.016Z,116568.78
2022-11-02T00:32:57.047Z,116910.03
2022-11-02T00:33:59.178Z,119263.59
2022-11-02T00:35:01.338Z,119263.59
2022-11-02T00:36:03.633Z,117921.63
2022-11-02T00:37:05.776Z,114903.78
2022-11-02T00:38:09.545Z,113255.72
2022-11-02T00:39:11.778Z,115251.28
2022-11-02T00:40:14.378Z,115581.16
2022-11-02T00:41:19.004Z,115931.69
2022-11-02T00:42:21.199Z,114242.31
2022-11-02T00:43:23.406Z,114244.19
2022-11-02T00:44:25.482Z,109225.63
2022-11-02T00:45:28.078Z,104897.03
2022-11-02T00:46:30.702Z,101543.63
2022-11-02T00:47:33.362Z,95876.97
2022-11-02T00:48:36.221Z,86230.03
2022-11-02T00:49:38.915Z,76938.63
2022-11-02T00:50:41.672Z,66021.13
2022-11-02T00:51:44.284Z,62048.13
2022-11-02T00:52:48.808Z,56771.44
2022-11-02T00:53:50.996Z,49849.47
2022-11-02T00:54:53.091Z,41304.28
2022-11-02T00:55:55.283Z,37694.66
2022-11-02T00:56:57.716Z,34415.69
2022-11-02T00:57:59.998Z,32448.78
2022-11-02T00:59:02.135Z,29175.66
2022-11-02T01:00:05.723Z,26888.38
2022-11-02T01:01:08.824Z,25580.09
2022-11-02T01:02:11.840Z,23945.41
2022-11-02T01:03:14.003Z,21984.84
2022-11-02T01:04:20.376Z,21006.66
2022-11-02T01:05:22.480Z,20678.50
2022-11-02T01:06:24.698Z,18395.69
2022-11-02T01:07:29.610Z,16766.78
2022-11-02T01:08:32.949Z,16113.81
2022-11-02T01:09:35.619Z,14808.41
2022-11-02T01:10:37.695Z,14806.84
2022-11-02T01:11:40.735Z,13505.66
2022-11-02T01:12:42.801Z,13830.38
2022-11-02T01:13:46.788Z,13830.66
2022-11-02T01:14:49.452Z,12526.78
2022-11-02T01:15:51.567Z,10900.28
2022-11-02T01:16:53.656Z,11225.41
2022-11-02T01:17:55.872Z,11876.78
2022-11-02T01:18:58.860Z,11226.59
2022-11-02T01:20:00.939Z,11551.37
2022-11-02T01:21:04.234Z,10575.59
2022-11-02T01:22:06.546Z,10250.34
2022-11-02T01:23:09.904Z,9598.81
2022-11-02T01:24:12.070Z,9598.91
2022-11-02T01:25:14.198Z,9924.28
2022-11-02T01:26:16.665Z,9923.84
2022-11-02T01:27:18.733Z,9273.53
2022-11-02T01:28:20.908Z,9599.53
2022-11-02T01:29:23.102Z,10575.19
2022-11-02T01:30:25.174Z,10249.63
2022-11-02T01:31:27.236Z,9599.66
2022-11-02T01:32:30.589Z,9274.69
2022-11-02T01:33:32.967Z,10250.16
2022-11-02T01:34:35.138Z,9599.81
2022-11-02T01:35:37.267Z,9600.63
2022-11-02T01:36:39.446Z,10902.16
2022-11-02T01:37:41.596Z,11553.91
2022-11-02T01:38:44.028Z,11551.91
2022-11-02T01:39:46.188Z,10575.88
2022-11-02T01:40:48.687Z,10249.41
2022-11-02T01:41:52.757Z,9274.09
2022-11-02T01:42:54.834Z,8949.16
2022-11-02T01:44:01.385Z,8624.44
2022-11-02T01:45:03.849Z,9924.22
2022-11-02T01:46:13.925Z,8624.66
2022-11-02T01:47:27.930Z,8625.50
2022-11-02T01:49:07.950Z,9276.53
2022-11-02T01:50:14.489Z,9926.38
2022-11-02T01:51:26.134Z,8950.78
2022-11-02T01:52:34.328Z,8624.84
2022-11-02T01:53:39.780Z,8624.34
2022-11-02T01:54:48.234Z,7649.06
2022-11-02T01:55:50.885Z,8948.84
2022-11-02T01:57:00.401Z,7974.22
2022-11-02T01:58:07.630Z,7648.53
2022-11-02T01:59:24.098Z,6998.38
2022-11-02T02:00:26.256Z,7973.19
2022-11-02T02:01:29.908Z,7323.16
2022-11-02T02:02:35.186Z,7648.13
2022-11-02T02:03:42.335Z,6998.47
2022-11-02T02:04:48.033Z,7649.09
2022-11-02T02:05:56.511Z,7649.31
2022-11-02T02:06:59.083Z,8298.56
2022-11-02T02:08:03.833Z,8299.31
2022-11-02T02:09:08.974Z,8950.16
2022-11-02T02:10:11.945Z,8950.06
2022-11-02T02:11:27.772Z,8625.38
2022-11-02T02:12:31.328Z,9275.16
2022-11-02T02:13:33.489Z,9925.63
2022-11-02T02:14:36.261Z,10901.50
2022-11-02T02:15:43.877Z,9276.19
2022-11-02T02:17:01.598Z,8950.72
2022-11-02T02:18:14.462Z,9275.72
2022-11-02T02:19:39.041Z,8950.59
2022-11-02T02:20:44.211Z,8950.59
2022-11-02T02:22:12.839Z,9602.44
2022-11-02T02:23:37.528Z,10904.22
2022-11-02T02:24:48.795Z,11230.06
2022-11-02T02:26:09.794Z,11881.53
2022-11-02T02:27:23.573Z,13184.50
2022-11-02T02:28:44.417Z,13512.31
2022-11-02T02:30:05.274Z,14165.13
2022-11-02T02:31:31.970Z,15793.13
2022-11-02T02:32:53.193Z,15141.69
2022-11-02T02:34:11.747Z,15140.94
2022-11-02T02:35:19.565Z,17095.13
2022-11-02T02:36:34.784Z,16121.56
2022-11-02T02:37:46.111Z,17426.94
2022-11-02T02:38:58.452Z,18079.44
2022-11-02T02:40:47.908Z,19059.66
2022-11-02T02:42:00.682Z,20364.69
2022-11-02T02:43:06.110Z,20691.81
2022-11-02T02:44:13.789Z,20364.09
2022-11-02T02:45:36.796Z,21016.19
2022-11-02T02:47:09.402Z,20038.81
2022-11-02T02:48:18.938Z,20364.09
2022-11-02T02:49:35.570Z,21343.97
2022-11-02T02:50:48.305Z,21016.81
2022-11-02T02:51:53.155Z,21665.44
2022-11-02T02:52:58.264Z,21343.03
2022-11-02T02:54:09.265Z,22323.78
2022-11-02T02:55:18.797Z,21345.84
2022-11-02T02:56:23.851Z,22650.94
2022-11-02T02:57:30.533Z,22978.13
2022-11-02T02:58:40.246Z,23305.56
2022-11-02T02:59:44.601Z,23958.75
2022-11-02T03:00:49.417Z,23629.16
2022-11-02T03:01:53.139Z,23628.81
2022-11-02T03:03:01.005Z,24285.03
2022-11-02T03:04:03.621Z,24610.78
2022-11-02T03:05:25.399Z,23965.34
2022-11-02T03:06:30.750Z,25599.03
2022-11-02T03:07:35.636Z,26904.72
2022-11-02T03:08:48.396Z,26581.03
2022-11-02T03:09:52.050Z,27232.66
2022-11-02T03:11:16.995Z,26913.41
2022-11-02T03:12:33.827Z,29530.88
2022-11-02T03:13:47.632Z,30515.81
2022-11-02T03:15:14.649Z,32484.69
2022-11-02T03:16:27.257Z,33787.06
2022-11-02T03:17:38.912Z,32808.94
2022-11-02T03:18:57.414Z,32808.44
2022-11-02T03:20:08.325Z,33136.66
2022-11-02T03:21:41.154Z,34777.88
2022-11-02T03:22:53.143Z,35429.38
2022-11-02T03:24:38.691Z,35431.03
2022-11-02T03:25:59.216Z,37390.75
2022-11-02T03:27:22.653Z,38058.88
2022-11-02T03:28:31.776Z,38058.88
2022-11-02T03:29:53.289Z,39698.94
2022-11-02T03:31:07.127Z,38713.81
2022-11-02T03:32:19.478Z,40355.59
2022-11-02T03:33:26.228Z,42321.69
2022-11-02T03:34:55.976Z,41662.50
2022-11-02T03:36:15.074Z,40348.72
2022-11-02T03:37:20.094Z,39352.38
2022-11-02T03:38:28.548Z,35743.59
2022-11-02T03:39:41.150Z,33781.88
2022-11-02T03:40:50.694Z,32466.84
2022-11-02T03:41:57.933Z,31810.16
2022-11-02T03:43:00.929Z,31146.03
2022-11-02T03:44:08.772Z,28533.22
2022-11-02T03:45:16.016Z,28857.78
2022-11-02T03:46:20.741Z,27877.31
2022-11-02T03:47:26.032Z,27221.19
2022-11-02T03:48:37.205Z,26242.31
2022-11-02T03:49:42.664Z,27222.41
2022-11-02T03:50:50.230Z,27552.13
2022-11-02T03:51:57.071Z,28532.16
2022-11-02T03:53:15.328Z,27224.88
2022-11-02T03:55:06.106Z,26570.88
2022-11-02T03:56:16.989Z,26569.28
2022-11-02T03:57:24.689Z,24605.09
2022-11-02T03:58:27.973Z,23947.38
2022-11-02T03:59:32.503Z,23627.06
2022-11-02T04:00:36.055Z,24607.66
2022-11-02T04:01:46.264Z,24609.13
2022-11-02T04:02:52.739Z,24282.31
2022-11-02T04:03:55.128Z,23953.06
2022-11-02T04:04:57.344Z,22971.34
2022-11-02T04:06:00.676Z,21336.13
2022-11-02T04:07:06.856Z,18725.19
2022-11-02T04:08:21.741Z,17422.09
2022-11-02T04:09:29.927Z,14809.00
2022-11-02T04:10:32.700Z,13508.44
2022-11-02T04:11:54.726Z,13510.47
2022-11-02T04:13:15.190Z,14159.56
2022-11-02T04:14:36.447Z,13834.38
2022-11-02T04:15:38.579Z,13837.59
2022-11-02T04:16:40.904Z,16441.38
2022-11-02T04:18:07.442Z,15787.69
2022-11-02T04:19:28.684Z,15467.56
2022-11-02T04:20:41.081Z,15463.00
2022-11-02T04:22:03.219Z,14811.19
2022-11-02T04:23:26.171Z,14483.03
2022-11-02T04:24:47.111Z,15139.34
2022-11-02T04:25:55.594Z,13833.41
2022-11-02T04:27:09.899Z,14481.75
2022-11-02T04:28:12.136Z,15457.25
2022-11-02T04:29:24.079Z,15457.69
2022-11-02T04:30:26.214Z,14804.78
2022-11-02T04:31:30.942Z,15455.09
2022-11-02T04:32:59.170Z,14480.03
2022-11-02T04:34:04.127Z,17085.13
2022-11-02T04:35:07.365Z,17082.69
2022-11-02T04:36:09.677Z,16428.56
2022-11-02T04:37:42.956Z,16425.66
2022-11-02T04:38:45.220Z,15127.72
2022-11-02T04:40:02.488Z,16752.72
2022-11-02T04:41:23.276Z,17077.09
2022-11-02T04:42:27.826Z,17075.38
2022-11-02T04:43:33.322Z,15772.47
2022-11-02T04:44:35.488Z,15772.81
2022-11-02T04:45:41.380Z,14794.28
2022-11-02T04:46:44.809Z,14143.13
2022-11-02T04:47:48.401Z,13492.53
2022-11-02T04:48:50.712Z,13491.41
2022-11-02T04:49:53.301Z,12515.81
2022-11-02T04:50:55.440Z,11215.00
2022-11-02T04:51:57.561Z,10240.00
2022-11-02T04:53:02.713Z,10240.41
2022-11-02T04:54:06.748Z,10240.19
2022-11-02T04:55:09.269Z,9913.47
2022-11-02T04:56:11.681Z,9264.72
2022-11-02T04:57:13.921Z,9589.25
2022-11-02T04:58:16.071Z,9264.38
2022-11-02T04:59:18.265Z,9263.91
2022-11-02T05:00:21.762Z,8289.78
2022-11-02T05:01:26.104Z,7964.50
2022-11-02T05:02:28.357Z,7638.84
2022-11-02T05:03:31.302Z,6665.09
2022-11-02T05:04:33.429Z,6340.06
2022-11-02T05:05:35.543Z,5366.91
2022-11-02T05:06:37.697Z,5042.63
2022-11-02T05:07:40.285Z,5042.44
2022-11-02T05:08:42.594Z,4717.81
2022-11-02T05:09:45.097Z,4069.34
2022-11-02T05:10:48.541Z,3745.22
2022-11-02T05:11:50.807Z,4069.47
2022-11-02T05:13:00.091Z,3421.09
2022-11-02T05:14:06.747Z,3096.75
2022-11-02T05:15:09.426Z,2772.63
2022-11-02T05:16:14.312Z,2124.59
2022-11-02T05:17:16.535Z,1800.63
2022-11-02T05:18:19.386Z,1800.63
2022-11-02T05:19:22.673Z,1800.63
2022-11-02T05:20:24.785Z,828.97
2022-11-02T05:21:28.793Z,505.00
2022-11-02T05:22:31.477Z,828.84
2022-11-02T05:23:33.744Z,504.97
2022-11-02T05:24:36.512Z,180.88
2022-11-02T05:25:40.122Z,180.88
2022-11-02T05:26:42.489Z,504.69
2022-11-02T05:27:44.727Z,828.69
2022-11-02T05:28:46.885Z,504.59
2022-11-02T05:29:49.054Z,828.50
2022-11-02T05:30:51.984Z,1152.41
2022-11-02T05:31:54.192Z,1476.44
2022-11-02T05:32:57.612Z,1152.47
2022-11-02T05:34:00.013Z,828.53
2022-11-02T05:35:03.144Z,180.56
2022-11-02T05:36:05.691Z,180.66
2022-11-02T05:37:09.837Z,-466.91
2022-11-02T05:38:12.272Z,-1438.28
2022-11-02T05:39:14.595Z,-1114.63
2022-11-02T05:40:17.167Z,-1438.28
2022-11-02T05:41:19.248Z,-2085.47
2022-11-02T05:42:21.391Z,-2409.56
2022-11-02T05:43:24.230Z,-2733.09
2022-11-02T05:44:26.357Z,-3380.09
2022-11-02T05:45:28.859Z,-4026.63
2022-11-02T05:46:31.050Z,-4996.69
2022-11-02T05:47:34.268Z,-5321.31
2022-11-02T05:48:36.372Z,-5967.69
2022-11-02T05:49:38.500Z,-5967.81
2022-11-02T05:50:40.637Z,-6290.06
2022-11-02T05:51:44.040Z,-7261.34
2022-11-02T05:52:46.573Z,-7260.88
2022-11-02T05:53:48.871Z,-7583.56
2022-11-02T05:54:50.962Z,-8229.63
2022-11-02T05:55:57.449Z,-8231.94
2022-11-02T05:56:59.768Z,-7907.63
2022-11-02T05:58:01.876Z,-7907.41
2022-11-02T05:59:04.010Z,-8552.56
2022-11-02T06:00:07.283Z,-9199.28
2022-11-02T06:01:14.420Z,-9844.97
2022-11-02T06:02:16.637Z,-10169.34
2022-11-02T06:03:19.024Z,-9845.66
2022-11-02T06:04:21.237Z,-9845.56
2022-11-02T06:05:24.010Z,-10491.31
2022-11-02T06:06:26.160Z,-10491.72
2022-11-02T06:07:28.279Z,-10493.19
2022-11-02T06:08:35.370Z,-11139.13
2022-11-02T06:09:37.585Z,-11458.94
2022-11-02T06:10:42.835Z,-11781.56
2022-11-02T06:11:44.956Z,-12427.25
2022-11-02T06:12:47.133Z,-12426.28
2022-11-02T06:13:50.975Z,-12751.34
2022-11-02T06:14:53.102Z,-12749.75
2022-11-02T06:15:59.536Z,-13398.59
2022-11-02T06:17:01.655Z,-13075.56
2022-11-02T06:18:03.973Z,-12431.06
2022-11-02T06:19:06.168Z,-11785.88
2022-11-02T06:20:09.059Z,-11789.53
2022-11-02T06:21:11.528Z,-10820.94
2022-11-02T06:22:13.663Z,-9851.63
2022-11-02T06:23:18.141Z,-9207.81
2022-11-02T06:24:21.139Z,-8237.69
2022-11-02T06:25:24.321Z,-7267.66
2022-11-02T06:26:27.325Z,-6621.88
2022-11-02T06:27:29.450Z,-5650.84
2022-11-02T06:28:32.028Z,-5652.38
2022-11-02T06:29:34.188Z,-4357.41
2022-11-02T06:30:36.346Z,-3061.81
2022-11-02T06:31:38.608Z,-2413.88
2022-11-02T06:32:46.709Z,-2414.50
2022-11-02T06:33:48.867Z,-1765.53
2022-11-02T06:34:50.948Z,-1117.28
2022-11-02T06:35:54.436Z,-2090.47
2022-11-02T06:36:56.557Z,-1117.53
2022-11-02T06:37:58.647Z,-1117.81
2022-11-02T06:39:00.772Z,-469.13
2022-11-02T06:40:02.916Z,-1441.78
2022-11-02T06:41:06.679Z,-1117.88
2022-11-02T06:42:10.199Z,-145.22
2022-11-02T06:43:16.662Z,-469.81
2022-11-02T06:44:22.770Z,502.56
2022-11-02T06:45:25.315Z,1475.81
2022-11-02T06:46:28.578Z,1475.88
2022-11-02T06:47:36.414Z,1151.38
2022-11-02T06:48:38.615Z,1475.78
2022-11-02T06:49:40.848Z,1475.53
2022-11-02T06:50:43.027Z,4072.13
2022-11-02T06:51:45.154Z,5371.59
2022-11-02T06:52:47.718Z,7322.22
2022-11-02T06:53:49.871Z,9925.09
2022-11-02T06:54:52.029Z,11879.00
2022-11-02T06:55:56.616Z,14809.94
2022-11-02T06:56:58.772Z,16441.75
2022-11-02T06:58:01.005Z,18723.97
2022-11-02T06:59:03.182Z,20361.88
2022-11-02T07:01:15.710Z,29197.94
2022-11-02T07:02:18.069Z,33453.19
2022-11-02T07:03:20.229Z,35752.94
2022-11-02T07:04:22.693Z,40021.97
2022-11-02T07:05:24.785Z,43975.44
2022-11-02T07:06:27.005Z,48244.66
2022-11-02T07:07:29.244Z,50882.53
2022-11-02T07:08:31.466Z,53192.75
2022-11-02T07:09:33.570Z,52530.91
2022-11-02T07:10:35.675Z,55190.66
2022-11-02T07:11:37.788Z,59816.59
2022-11-02T07:12:39.917Z,62452.25
2022-11-02T07:13:42.541Z,63465.69
2022-11-02T07:14:44.685Z,68756.00
2022-11-02T07:15:46.782Z,68751.06
2022-11-02T07:16:49.158Z,70422.63
2022-11-02T07:17:51.993Z,71088.53
2022-11-02T07:18:54.123Z,72736.59
2022-11-02T07:19:56.452Z,75734.03
2022-11-02T07:20:59.468Z,78420.38
2022-11-02T07:22:01.744Z,83394.25
2022-11-02T07:23:05.335Z,81064.72
2022-11-02T07:24:08.140Z,80370.75
2022-11-02T07:25:10.298Z,78660.63
2022-11-02T07:26:12.450Z,65749.22
2022-11-02T07:27:14.764Z,61784.69
2022-11-02T07:28:16.905Z,61440.75
2022-11-02T07:29:19.452Z,55169.38
2022-11-02T07:30:21.771Z,52189.59
2022-11-02T07:31:23.953Z,46253.28
2022-11-02T07:32:26.205Z,39679.88
2022-11-02T07:33:28.342Z,36397.88
2022-11-02T07:34:30.601Z,33451.66
2022-11-02T07:35:34.215Z,33769.97
2022-11-02T07:36:36.447Z,32462.91
2022-11-02T07:37:38.900Z,32460.16
2022-11-02T07:38:42.576Z,30164.72
2022-11-02T07:39:44.835Z,28203.97
2022-11-02T07:40:50.919Z,27885.09
2022-11-02T07:41:53.237Z,29518.34
2022-11-02T07:42:56.117Z,31477.66
2022-11-02T07:44:08.308Z,33463.91
2022-11-02T07:45:31.314Z,39368.78
2022-11-02T07:46:33.625Z,42996.13
2022-11-02T07:47:45.448Z,47293.16
2022-11-02T07:48:48.128Z,56183.28
2022-11-02T07:49:50.247Z,57498.97
2022-11-02T07:50:52.338Z,56831.91
2022-11-02T07:51:56.526Z,54849.22
2022-11-02T07:52:59.082Z,51875.38
2022-11-02T07:54:02.663Z,50229.94
2022-11-02T07:55:05.152Z,49889.34
2022-11-02T07:56:07.760Z,43625.00
2022-11-02T07:57:10.173Z,42319.06
2022-11-02T07:58:15.483Z,42649.53
2022-11-02T07:59:17.687Z,42003.63
2022-11-02T08:00:19.886Z,45618.66
2022-11-02T08:01:22.106Z,45631.84
2022-11-02T08:02:24.355Z,52240.47
2022-11-02T08:03:27.560Z,61840.91
2022-11-02T08:04:29.730Z,75751.56
2022-11-02T08:05:35.744Z,78422.91
2022-11-02T08:06:37.966Z,82719.53
2022-11-02T08:07:40.120Z,80038.75
2022-11-02T08:08:42.544Z,75060.53
2022-11-02T08:09:44.680Z,77069.63
2022-11-02T08:10:48.505Z,77070.25
2022-11-02T08:11:50.589Z,89739.00
2022-11-02T08:12:53.000Z,102467.13
2022-11-02T08:13:55.152Z,113169.31
2022-11-02T08:14:58.999Z,124586.22
2022-11-02T08:16:02.571Z,136702.66
2022-11-02T08:17:04.679Z,141606.44
2022-11-02T08:18:14.706Z,148904.28
2022-11-02T08:19:16.853Z,147821.19
2022-11-02T08:20:19.610Z,145525.97
2022-11-02T08:21:21.706Z,148835.06
2022-11-02T08:22:23.922Z,148799.81
2022-11-02T08:23:26.763Z,148847.25
2022-11-02T08:24:28.916Z,148767.03
2022-11-02T08:25:32.113Z,131208.56
2022-11-02T08:26:34.259Z,129141.63
2022-11-02T08:27:36.437Z,117719.50
2022-11-02T08:28:40.277Z,109317.56
2022-11-02T08:29:42.943Z,99629.22
2022-11-02T08:30:45.143Z,99618.00
2022-11-02T08:31:47.944Z,92279.50
2022-11-02T08:32:55.460Z,88942.94
2022-11-02T08:33:58.849Z,88273.78
2022-11-02T08:35:00.973Z,82953.47
2022-11-02T08:36:04.797Z,82978.75
2022-11-02T08:37:08.904Z,85662.13
2022-11-02T08:38:11.571Z,87644.19
2022-11-02T08:39:18.617Z,88643.22
2022-11-02T08:40:21.381Z,86950.00
2022-11-02T08:41:23.561Z,86292.31
2022-11-02T08:42:25.744Z,81628.50
2022-11-02T08:43:28.130Z,78306.41
2022-11-02T08:44:30.269Z,77634.69
2022-11-02T08:46:00.585Z,73017.38
2022-11-02T08:46:56.423Z,78971.47
2022-11-02T08:47:58.559Z,77651.44
2022-11-02T08:49:00.779Z,82293.56
2022-11-02T08:50:03.005Z,77302.63
2022-11-02T08:51:05.748Z,75325.38
2022-11-02T08:52:07.927Z,75665.75
2022-11-02T08:53:10.024Z,73338.56
2022-11-02T08:54:12.393Z,76992.75
2022-11-02T08:55:14.515Z,76997.69
2022-11-02T08:56:16.593Z,77660.75
2022-11-02T08:57:18.734Z,77671.94
2022-11-02T08:58:20.916Z,77984.84
2022-11-02T08:59:23.012Z,77640.88
2022-11-02T09:00:30.689Z,72684.44
2022-11-02T09:01:32.917Z,70673.94
2022-11-02T09:02:35.146Z,67695.75
2022-11-02T09:03:37.313Z,66047.31
2022-11-02T09:04:39.415Z,64396.25
2022-11-02T09:05:43.820Z,64057.81
2022-11-02T09:06:45.913Z,64067.97
2022-11-02T09:07:48.002Z,66055.72
2022-11-02T09:08:52.715Z,69024.41
2022-11-02T09:09:58.378Z,69373.38
2022-11-02T09:11:02.495Z,74012.75
2022-11-02T09:12:04.902Z,73989.72
2022-11-02T09:13:08.762Z,72022.22
2022-11-02T09:14:11.145Z,73016.78
2022-11-02T09:15:13.402Z,74998.25
2022-11-02T09:16:15.889Z,76995.22
2022-11-02T09:17:18.066Z,79648.16
2022-11-02T09:18:20.821Z,84341.66
2022-11-02T09:19:23.021Z,95679.59
2022-11-02T09:20:25.374Z,114459.03
2022-11-02T09:21:27.483Z,136336.72
2022-11-02T09:22:30.501Z,148276.38
2022-11-02T09:23:33.088Z,148931.03
2022-11-02T09:24:35.284Z,148976.00
2022-11-02T09:25:37.670Z,148996.63
2022-11-02T09:26:39.830Z,148992.97
2022-11-02T09:27:42.748Z,148974.78
2022-11-02T09:28:44.931Z,148932.22
2022-11-02T09:29:47.099Z,148893.38
2022-11-02T09:30:49.545Z,148854.53
2022-11-02T09:31:51.692Z,148759.75
2022-11-02T09:33:02.547Z,147891.44
2022-11-02T09:34:05.009Z,143954.53
2022-11-02T09:35:10.364Z,137961.19
2022-11-02T09:36:12.525Z,129203.59
2022-11-02T09:37:14.663Z,129959.53
2022-11-02T09:38:20.343Z,147353.25
2022-11-02T09:39:24.793Z,148938.31
2022-11-02T09:40:36.570Z,149070.75
2022-11-02T09:41:52.164Z,149194.75
2022-11-02T09:43:08.542Z,149368.69
2022-11-02T09:44:56.864Z,149520.69
2022-11-02T09:46:09.472Z,149760.47
2022-11-02T09:48:40.762Z,150012.59
2022-11-02T09:49:44.532Z,150007.72
2022-11-02T09:50:57.755Z,149993.13
2022-11-02T09:52:03.677Z,149888.31
2022-11-02T09:53:10.432Z,149839.63
2022-11-02T09:54:35.499Z,149865.22
2022-11-02T09:55:49.504Z,149834.78
2022-11-02T09:56:55.130Z,149810.41
2022-11-02T09:58:06.651Z,149810.41
2022-11-02T09:59:18.026Z,149838.41
2022-11-02T10:00:20.204Z,149664.31
2022-11-02T10:01:37.154Z,149610.78
2022-11-02T10:03:04.576Z,149401.50
2022-11-02T10:04:39.468Z,149405.16
2022-11-02T10:05:46.868Z,149467.19
2022-11-02T10:07:02.915Z,149360.13
2022-11-02T10:08:20.201Z,149313.91
2022-11-02T10:09:45.578Z,149257.94
2022-11-02T10:11:01.015Z,149202.06
2022-11-02T10:12:14.268Z,149099.94
2022-11-02T10:13:36.458Z,149029.41
2022-11-02T10:14:48.330Z,148922.53
2022-11-02T10:15:57.934Z,148888.53
2022-11-02T10:17:05.817Z,148841.19
2022-11-02T10:18:16.450Z,148881.25
2022-11-02T10:19:22.244Z,148869.06
2022-11-02T10:20:33.071Z,148839.94
2022-11-02T10:21:39.318Z,148832.59
2022-11-02T10:22:42.643Z,148864.22
2022-11-02T10:23:50.966Z,148912.84
2022-11-02T10:24:57.112Z,148968.66
2022-11-02T10:26:01.576Z,148976.00
2022-11-02T10:27:14.256Z,149104.84
2022-11-02T10:28:25.996Z,149182.59
2022-11-02T10:29:46.513Z,149354.06
2022-11-02T10:30:50.254Z,149326.03
2022-11-02T10:31:52.462Z,149306.59
2022-11-02T10:32:56.142Z,149304.19
2022-11-02T10:34:13.228Z,149312.69
2022-11-02T10:35:40.717Z,149273.78
2022-11-02T10:36:57.817Z,149158.28
2022-11-02T10:38:17.442Z,149206.94
2022-11-02T10:39:37.793Z,149178.97
2022-11-02T10:41:18.266Z,149253.09
2022-11-02T10:42:32.645Z,149270.13
2022-11-02T10:44:07.160Z,149394.19
2022-11-02T10:45:31.110Z,149513.38
2022-11-02T10:46:45.150Z,149437.97
2022-11-02T10:48:10.042Z,149445.28
2022-11-02T10:49:51.239Z,149489.03
2022-11-02T10:50:59.312Z,149588.84
2022-11-02T10:52:01.511Z,149710.56
2022-11-02T10:53:35.175Z,149787.28
2022-11-02T10:54:33.274Z,149817.69
2022-11-02T10:55:43.147Z,149739.78
2022-11-02T10:56:47.146Z,149678.91
2022-11-02T10:57:51.450Z,149588.84
2022-11-02T10:59:00.100Z,149614.41
2022-11-02T11:00:23.958Z,149364.97
2022-11-02T11:01:27.946Z,149215.41
2022-11-02T11:02:30.741Z,149116.97
2022-11-02T11:03:32.936Z,149132.75
2022-11-02T11:04:35.108Z,149104.84
2022-11-02T11:05:49.455Z,149033.06
2022-11-02T11:06:52.466Z,148933.44
2022-11-02T11:07:54.779Z,148889.75
2022-11-02T11:09:25.538Z,148881.25
2022-11-02T11:10:28.200Z,148856.94
2022-11-02T11:11:33.646Z,148839.94
2022-11-02T11:12:40.993Z,148859.38
2022-11-02T11:16:48.026Z,148937.09
2022-11-02T11:19:40.744Z,149174.09
2022-11-02T11:20:44.329Z,149352.84
2022-11-02T11:21:47.001Z,149423.38
2022-11-02T11:23:09.328Z,149504.88
2022-11-02T11:24:32.986Z,149568.19
2022-11-02T11:25:35.120Z,149637.53
2022-11-02T11:26:37.212Z,149646.06
2022-11-02T11:27:45.506Z,149708.13
2022-11-02T11:28:57.543Z,149615.63
2022-11-02T11:29:59.730Z,149790.91
2022-11-02T11:31:22.541Z,150066.19
2022-11-02T11:32:30.221Z,150178.25
2022-11-02T11:33:42.122Z,150246.53
2022-11-02T11:34:49.996Z,150161.22
2022-11-02T11:35:52.471Z,150290.44
2022-11-02T11:37:15.044Z,150240.47
2022-11-02T11:38:21.539Z,150093.00
2022-11-02T11:39:30.128Z,150152.72
2022-11-02T11:40:37.183Z,150180.69
2022-11-02T11:41:41.471Z,150236.81
2022-11-02T11:42:43.683Z,149932.19
2022-11-02T11:43:47.298Z,149756.78
2022-11-02T11:45:06.220Z,149674.03
2022-11-02T11:46:09.841Z,149525.53
2022-11-02T11:47:13.487Z,149408.78
2022-11-02T11:48:31.058Z,149292.00
2022-11-02T11:51:01.294Z,149194.75
2022-11-02T11:52:04.226Z,149107.25
2022-11-02T11:53:09.317Z,149126.69
2022-11-02T11:54:28.094Z,149147.34
2022-11-02T11:55:31.910Z,149061.00
2022-11-02T11:56:35.062Z,149010.00
2022-11-02T11:58:51.196Z,149029.41
2022-11-02T11:59:58.827Z,149182.59
2022-11-02T12:01:12.950Z,149500.03
2022-11-02T12:02:30.686Z,149683.78
2022-11-02T12:03:33.360Z,149771.41
2022-11-02T12:04:36.143Z,149927.31
2022-11-02T12:05:46.973Z,150062.56
2022-11-02T12:07:13.200Z,150158.78
2022-11-02T12:08:30.118Z,150341.63
2022-11-02T12:10:23.569Z,150033.31
2022-11-02T12:11:42.434Z,150158.78
2022-11-02T12:12:55.856Z,150122.25
2022-11-02T12:14:10.814Z,150241.69
2022-11-02T12:15:38.980Z,150210.00
2022-11-02T12:16:56.432Z,150190.53
2022-11-02T12:18:33.670Z,150029.66
2022-11-02T12:19:54.046Z,149527.97
2022-11-02T12:21:33.332Z,149420.94
2022-11-02T12:22:54.193Z,149445.28
2022-11-02T12:24:01.868Z,149501.25
2022-11-02T12:25:19.936Z,149700.84
2022-11-02T12:26:22.027Z,149765.34
2022-11-02T12:27:57.073Z,149885.88
2022-11-02T12:28:59.139Z,149985.72
2022-11-02T12:30:37.608Z,150173.41
2022-11-02T12:31:42.171Z,150173.41
2022-11-02T12:32:47.074Z,150097.88
2022-11-02T12:34:12.872Z,150124.69
2022-11-02T12:35:32.731Z,149832.34
2022-11-02T12:37:03.426Z,149500.03
2022-11-02T12:38:28.188Z,149444.06
2022-11-02T12:39:48.634Z,149666.75
2022-11-02T12:41:05.072Z,149787.28
2022-11-02T12:42:31.255Z,150002.84
2022-11-02T12:43:43.674Z,150011.38
2022-11-02T12:45:19.509Z,150041.81
2022-11-02T12:46:58.832Z,150217.28
2022-11-02T12:48:04.078Z,150236.81
2022-11-02T12:49:12.640Z,150414.78
2022-11-02T12:50:27.552Z,150314.78
2022-11-02T12:51:38.317Z,150297.75
2022-11-02T12:52:40.288Z,150141.72
2022-11-02T12:53:48.944Z,150131.97
2022-11-02T12:54:57.478Z,150323.34
2022-11-02T12:56:03.272Z,150424.59
2022-11-02T12:57:11.042Z,150369.66
2022-11-02T12:58:21.989Z,150514.81
2022-11-02T12:59:32.454Z,150522.13
2022-11-02T13:00:40.989Z,150433.09
2022-11-02T13:01:46.920Z,150270.94
2022-11-02T13:02:55.297Z,149961.41
2022-11-02T13:04:17.361Z,149859.13
2022-11-02T13:05:23.610Z,149647.28
2022-11-02T13:06:34.069Z,149777.50
2022-11-02T13:07:57.878Z,149762.91
2022-11-02T13:09:07.684Z,149557.16
2022-11-02T13:10:35.881Z,149472.03
2022-11-02T13:11:43.082Z,149462.28
2022-11-02T13:12:48.347Z,149318.75
2022-11-02T13:13:55.663Z,149435.56
2022-11-02T13:14:58.662Z,149395.38
2022-11-02T13:16:03.145Z,149292.00
2022-11-02T13:17:11.529Z,149350.41